Terminal Aerodrome Forecast
Issued by NWS North Platte, NE

Home | Current Version | Previous Version | Graphics & Text | Print | Product List | Glossary On
Versions: 1 2 3 4 5 6 7 8 9 10 11 12 13 14
000
FTUS43 KLBF 231100
TAFVTN
TAF
KVTN 231130Z 2312/2412 15004KT P6SM BKN150
      TEMPO 2312/2315 5SM -TSRA BKN050CB
     FM231700 14012G24KT P6SM SKC
     FM240300 13012KT P6SM BKN150 PROB30 2406/2412 5SM -TSRA
      BKN090CB=

USA.gov is the U.S. government's official web portal to all federal, state and local government web resources and services.